Time;durP1;ratioP1;P1;durP2;ratioP2;P2;SDS_P1;SDS_P2;PMS_P1;PMS_P2;Temp;Humidity;BMP_temperature;BMP_pressure;BME280_temperature;BME280_humidity;BME280_pressure;Samples;Min_cycle;Max_cycle;Signal;HPM_P1;HPM_P2
2022/01/26 00:08:51;;;;;;;37.35;18.90;;;;;;;;;;10523739;28;20077;-74
2022/01/26 00:13:51;;;;;;;37.63;17.23;;;;;;;;;;10523145;28;20144;-69
2022/01/26 00:18:55;;;;;;;30.67;16.70;;;;;;;;;;10497628;28;20840;-69
2022/01/26 00:29:11;;;;;;;30.75;21.45;;;;;;;;;;10532579;28;20016;-70
2022/01/26 00:38:33;;;;;;;32.20;21.77;;;;;;;;;;10532053;28;20034;-71
2022/01/26 00:39:37;;;;;;;33.90;25.40;;;;;;;;;;10531684;28;20106;-69
2022/01/26 00:44:43;;;;;;;28.83;25.47;;;;;;;;;;10530529;28;20408;-70
2022/01/26 00:49:43;;;;;;;36.00;20.58;;;;;;;;;;10537527;28;20265;-68
2022/01/26 00:54:44;;;;;;;26.25;23.65;;;;;;;;;;10531497;28;20421;-70
2022/01/26 00:59:44;;;;;;;29.75;19.35;;;;;;;;;;10529848;28;20039;-70
2022/01/26 01:04:44;;;;;;;47.03;20.60;;;;;;;;;;10513291;28;20355;-69
2022/01/26 01:09:45;;;;;;;53.33;29.35;;;;;;;;;;10487624;28;20482;-69
2022/01/26 01:14:45;;;;;;;54.50;38.42;;;;;;;;;;10487352;28;20505;-72
2022/01/26 01:20:02;;;;;;;38.10;27.47;;;;;;;;;;10470839;28;20059;-75
2022/01/26 01:30:44;;;;;;;45.97;29.15;;;;;;;;;;10488113;28;20032;-69
2022/01/26 01:35:46;;;;;;;58.13;34.15;;;;;;;;;;10486921;28;20417;-70
2022/01/26 01:40:50;;;;;;;39.80;25.45;;;;;;;;;;10488208;28;20047;-69
2022/01/26 01:45:52;;;;;;;47.05;35.03;;;;;;;;;;10469959;28;20047;-70
2022/01/26 01:50:54;;;;;;;38.90;28.23;;;;;;;;;;10488311;28;20043;-71
2022/01/26 01:55:54;;;;;;;24.52;21.52;;;;;;;;;;10488836;28;20036;-75
2022/01/26 02:00:55;;;;;;;27.83;19.43;;;;;;;;;;10470601;28;20040;-69
2022/01/26 02:05:55;;;;;;;24.13;19.92;;;;;;;;;;10488465;28;20044;-74
2022/01/26 02:10:56;;;;;;;33.55;20.05;;;;;;;;;;10468881;28;20064;-71
2022/01/26 02:16:07;;;;;;;39.65;20.50;;;;;;;;;;10468141;28;20484;-71
2022/01/26 02:58:42;;;;;;;29.60;22.20;;;;;;;;;;10526336;28;20024;-70
2022/01/26 03:03:45;;;;;;;33.22;18.48;;;;;;;;;;10524192;28;20028;-70
2022/01/26 03:08:53;;;;;;;44.42;19.23;;;;;;;;;;10613813;23;20048;-72
2022/01/26 03:14:01;;;;;;;;;;;;;;;;;;10557238;28;20144;-71
2022/01/26 03:34:36;;;;;;;37.08;22.63;;;;;;;;;;10525288;28;20032;-69
2022/01/26 03:39:42;;;;;;;42.83;22.63;;;;;;;;;;10525461;28;20552;-70
2022/01/26 03:44:43;;;;;;;50.10;32.83;;;;;;;;;;10525266;28;20293;-70
2022/01/26 03:49:43;;;;;;;50.17;25.85;;;;;;;;;;10507254;28;20039;-70
2022/01/26 03:54:43;;;;;;;43.03;23.17;;;;;;;;;;10506934;28;20074;-71
2022/01/26 03:59:44;;;;;;;53.95;22.45;;;;;;;;;;10507056;28;20040;-69
2022/01/26 04:04:50;;;;;;;52.03;21.17;;;;;;;;;;10506753;28;20043;-68
2022/01/26 04:09:50;;;;;;;40.42;21.98;;;;;;;;;;10506719;28;20055;-72
2022/01/26 04:14:57;;;;;;;51.08;18.52;;;;;;;;;;10507084;28;20043;-71
2022/01/26 04:19:58;;;;;;;38.65;16.98;;;;;;;;;;10506526;28;20040;-70
2022/01/26 04:24:59;;;;;;;34.92;14.45;;;;;;;;;;10506585;28;20410;-74
2022/01/26 04:29:59;;;;;;;45.42;14.63;;;;;;;;;;10523610;28;20042;-70
2022/01/26 04:35:00;;;;;;;19.75;12.52;;;;;;;;;;10464812;28;20139;-70
2022/01/26 04:40:05;;;;;;;27.58;16.45;;;;;;;;;;10483148;28;20045;-70
2022/01/26 04:45:09;;;;;;;16.83;8.93;;;;;;;;;;10480890;28;20123;-70
2022/01/26 04:50:10;;;;;;;19.42;11.48;;;;;;;;;;10522527;28;20056;-72
2022/01/26 04:55:11;;;;;;;23.85;12.07;;;;;;;;;;10465564;28;20619;-70
2022/01/26 05:00:12;;;;;;;34.60;13.55;;;;;;;;;;10493059;28;20085;-71
2022/01/26 05:05:12;;;;;;;22.55;12.73;;;;;;;;;;10513227;28;20434;-70
2022/01/26 05:10:13;;;;;;;14.68;11.35;;;;;;;;;;10522266;28;20044;-72
2022/01/26 05:15:14;;;;;;;12.20;7.38;;;;;;;;;;10513008;28;20550;-73
2022/01/26 05:20:14;;;;;;;21.38;10.60;;;;;;;;;;10554661;28;20163;-73
2022/01/26 05:25:15;;;;;;;22.45;11.93;;;;;;;;;;10553847;28;20700;-75
2022/01/26 05:30:17;;;;;;;20.00;10.25;;;;;;;;;;10553281;28;20428;-74
2022/01/26 05:35:17;;;;;;;18.13;10.57;;;;;;;;;;10529426;28;20556;-72
2022/01/26 05:40:17;;;;;;;21.73;13.43;;;;;;;;;;10539173;28;20031;-73
2022/01/26 05:45:32;;;;;;;30.40;15.10;;;;;;;;;;10552903;28;20293;-73
2022/01/26 05:50:33;;;;;;;26.73;13.38;;;;;;;;;;10550089;28;20844;-75
2022/01/26 05:55:33;;;;;;;17.15;10.20;;;;;;;;;;10550013;28;20101;-72
2022/01/26 06:00:33;;;;;;;34.95;12.85;;;;;;;;;;10550974;28;20421;-75
2022/01/26 06:05:34;;;;;;;25.77;10.25;;;;;;;;;;10552692;28;20543;-71
2022/01/26 06:10:35;;;;;;;23.63;12.23;;;;;;;;;;10552720;28;20060;-78
2022/01/26 06:15:35;;;;;;;19.52;12.73;;;;;;;;;;10555995;28;20493;-72
2022/01/26 06:20:35;;;;;;;15.68;9.55;;;;;;;;;;10510319;28;20047;-71
2022/01/26 06:25:36;;;;;;;20.13;11.27;;;;;;;;;;10551141;28;20122;-76
2022/01/26 06:30:36;;;;;;;29.80;13.70;;;;;;;;;;10551538;28;20027;-71
2022/01/26 06:35:36;;;;;;;32.90;13.30;;;;;;;;;;10552006;28;20023;-71
2022/01/26 06:40:37;;;;;;;30.70;12.83;;;;;;;;;;10551639;28;20042;-72
2022/01/26 06:45:44;;;;;;;24.40;12.80;;;;;;;;;;10551214;28;21215;-74
2022/01/26 06:50:44;;;;;;;32.47;14.23;;;;;;;;;;10550335;28;20268;-73
2022/01/26 06:55:45;;;;;;;26.50;13.33;;;;;;;;;;10551474;28;20408;-72
2022/01/26 07:00:46;;;;;;;30.13;14.82;;;;;;;;;;10534073;28;20269;-76
2022/01/26 07:05:46;;;;;;;27.27;13.55;;;;;;;;;;10556900;28;20093;-72
2022/01/26 07:10:49;;;;;;;29.65;14.98;;;;;;;;;;10524633;28;20048;-70
2022/01/26 07:21:23;;;;;;;26.05;12.75;;;;;;;;;;10525965;28;20147;-70
2022/01/26 07:26:27;;;;;;;31.48;15.45;;;;;;;;;;10507052;28;20032;-76
2022/01/26 07:31:28;;;;;;;29.58;12.25;;;;;;;;;;10531949;28;20481;-73
2022/01/26 07:36:28;;;;;;;32.22;15.27;;;;;;;;;;10506830;28;20051;-75
2022/01/26 07:41:28;;;;;;;31.83;13.80;;;;;;;;;;10523851;28;20224;-71
2022/01/26 07:46:28;;;;;;;28.60;14.52;;;;;;;;;;10507111;28;20907;-77
2022/01/26 07:51:29;;;;;;;29.07;13.67;;;;;;;;;;10524409;28;20032;-75
2022/01/26 07:56:29;;;;;;;28.57;14.43;;;;;;;;;;10525165;28;20051;-76
2022/01/26 08:01:30;;;;;;;30.03;12.57;;;;;;;;;;10506690;28;20448;-77
2022/01/26 08:06:31;;;;;;;25.35;14.90;;;;;;;;;;10524571;28;20391;-70
2022/01/26 08:11:31;;;;;;;23.65;13.77;;;;;;;;;;10506592;28;20155;-72
2022/01/26 08:16:31;;;;;;;31.27;15.27;;;;;;;;;;10505980;28;20074;-70
2022/01/26 08:21:31;;;;;;;33.78;16.67;;;;;;;;;;10506603;28;20093;-74
2022/01/26 08:26:41;;;;;;;30.40;14.52;;;;;;;;;;10522389;28;20039;-76
2022/01/26 08:31:43;;;;;;;20.65;11.85;;;;;;;;;;10506540;28;20039;-76
2022/01/26 08:36:43;;;;;;;28.33;12.10;;;;;;;;;;10508958;28;20615;-74
2022/01/26 08:41:44;;;;;;;26.67;11.57;;;;;;;;;;10513463;28;20035;-76
2022/01/26 08:46:44;;;;;;;28.80;12.43;;;;;;;;;;10513354;28;20308;-76
2022/01/26 08:51:44;;;;;;;18.73;10.70;;;;;;;;;;10532090;28;20435;-74
2022/01/26 08:56:45;;;;;;;27.10;11.70;;;;;;;;;;10531792;28;20465;-75
2022/01/26 09:01:45;;;;;;;25.98;12.23;;;;;;;;;;10531069;28;20027;-76
2022/01/26 09:06:57;;;;;;;27.98;12.02;;;;;;;;;;10513499;28;20035;-71
2022/01/26 09:12:00;;;;;;;24.17;11.32;;;;;;;;;;10531156;28;20028;-71
2022/01/26 09:17:02;;;;;;;21.60;11.75;;;;;;;;;;10512744;28;20066;-71
2022/01/26 09:22:05;;;;;;;22.00;11.70;;;;;;;;;;10534108;28;20028;-73
2022/01/26 09:27:06;;;;;;;13.90;8.32;;;;;;;;;;10511606;28;20024;-71
2022/01/26 09:32:07;;;;;;;17.63;10.25;;;;;;;;;;10529476;28;20028;-77
2022/01/26 09:37:16;;;;;;;20.00;9.65;;;;;;;;;;10511568;28;20138;-71
2022/01/26 09:42:16;;;;;;;24.83;10.23;;;;;;;;;;10511054;28;20032;-71
2022/01/26 09:47:17;;;;;;;20.05;9.68;;;;;;;;;;10511747;28;20027;-70
2022/01/26 09:52:27;;;;;;;22.77;10.77;;;;;;;;;;10529285;28;20028;-76
2022/01/26 09:57:28;;;;;;;20.30;8.00;;;;;;;;;;10522300;28;20415;-74
2022/01/26 10:02:30;;;;;;;18.40;7.75;;;;;;;;;;10511046;28;20024;-71
2022/01/26 10:18:06;;;;;;;13.02;7.53;;;;;;;;;;10514051;28;20028;-74
2022/01/26 10:23:07;;;;;;;19.33;7.82;;;;;;;;;;10526814;28;20043;-71
2022/01/26 10:28:09;;;;;;;20.67;9.68;;;;;;;;;;10527792;28;20504;-70
2022/01/26 10:33:10;;;;;;;18.48;8.82;;;;;;;;;;10527220;28;20035;-73
2022/01/26 10:38:10;;;;;;;16.83;9.63;;;;;;;;;;10509771;28;20480;-71
2022/01/26 10:43:13;;;;;;;13.63;7.55;;;;;;;;;;10508639;28;20124;-70
2022/01/26 10:53:55;;;;;;;20.20;11.23;;;;;;;;;;10492876;28;20190;-74
2022/01/26 10:58:57;;;;;;;22.95;9.02;;;;;;;;;;10507332;28;20451;-75
2022/01/26 11:03:57;;;;;;;19.23;10.13;;;;;;;;;;10508374;28;20508;-77
2022/01/26 11:09:00;;;;;;;26.67;11.50;;;;;;;;;;10526126;28;20087;-77
2022/01/26 11:14:00;;;;;;;22.65;10.23;;;;;;;;;;10508043;28;20039;-78
2022/01/26 11:19:01;;;;;;;21.60;11.68;;;;;;;;;;10507785;28;20035;-78
2022/01/26 11:24:05;;;;;;;27.60;10.98;;;;;;;;;;10508399;28;20131;-78
2022/01/26 11:29:16;;;;;;;22.08;10.48;;;;;;;;;;10507807;28;20628;-75
2022/01/26 11:34:17;;;;;;;18.90;9.32;;;;;;;;;;10526209;28;20035;-71
2022/01/26 11:50:08;;;;;;;17.65;10.63;;;;;;;;;;10525806;28;20032;-73
2022/01/26 11:55:23;;;;;;;16.05;8.13;;;;;;;;;;10506825;28;20062;-72
2022/01/26 12:00:42;;;;;;;26.70;8.98;;;;;;;;;;10507101;28;20054;-71
2022/01/26 12:05:47;;;;;;;23.27;9.55;;;;;;;;;;10506803;28;20500;-75
2022/01/26 12:10:48;;;;;;;19.05;10.27;;;;;;;;;;10526117;28;20082;-72
2022/01/26 12:15:57;;;;;;;18.80;10.25;;;;;;;;;;10514764;28;20481;-74
2022/01/26 12:42:38;;;;;;;22.80;11.13;;;;;;;;;;10473715;28;20052;-71
2022/01/26 12:47:38;;;;;;;24.55;10.63;;;;;;;;;;10574780;28;20024;-69
2022/01/26 12:52:39;;;;;;;30.25;11.35;;;;;;;;;;10554349;28;20484;-69
2022/01/26 12:57:45;;;;;;;22.70;12.27;;;;;;;;;;10554922;28;20428;-69
2022/01/26 13:02:45;;;;;;;34.55;11.25;;;;;;;;;;10532947;28;20289;-71
2022/01/26 13:07:46;;;;;;;22.10;10.93;;;;;;;;;;10512283;28;20056;-71
2022/01/26 13:12:46;;;;;;;23.33;11.67;;;;;;;;;;10553878;28;20298;-73
2022/01/26 13:18:03;;;;;;;22.67;11.47;;;;;;;;;;10553404;28;20508;-73
2022/01/26 13:23:15;;;;;;;25.60;11.15;;;;;;;;;;10553143;28;20073;-71
2022/01/26 13:28:34;;;;;;;19.17;10.43;;;;;;;;;;10552828;28;20067;-73
2022/01/26 13:50:02;;;;;;;12.85;9.18;;;;;;;;;;10467701;28;19904;-78
2022/01/26 14:00:11;;;;;;;18.88;11.18;;;;;;;;;;10570691;28;20327;-73
2022/01/26 14:05:12;;;;;;;21.08;10.70;;;;;;;;;;10570295;28;20070;-70
2022/01/26 14:10:12;;;;;;;16.73;9.63;;;;;;;;;;10551525;28;20055;-76
2022/01/26 14:15:18;;;;;;;16.87;9.37;;;;;;;;;;10533274;28;20024;-72
2022/01/26 14:25:30;;;;;;;15.70;10.38;;;;;;;;;;10527143;28;20035;-70
2022/01/26 15:48:41;;;;;;;21.77;11.38;;;;;;;;;;10524441;28;20555;-69
2022/01/26 15:50:37;;;;;;;16.90;9.68;;;;;;;;;;10524545;28;20028;-72
2022/01/26 16:06:21;;;;;;;17.50;9.45;;;;;;;;;;10523712;28;20063;-71
2022/01/26 16:17:06;;;;;;;12.43;11.02;;;;;;;;;;10524361;28;20028;-72
2022/01/26 16:27:51;;;;;;;17.70;13.57;;;;;;;;;;10523981;28;20032;-72
2022/01/26 17:02:29;;;;;;;29.40;15.98;;;;;;;;;;10526095;28;20040;-70
2022/01/26 17:27:04;;;;;;;30.42;15.35;;;;;;;;;;10578917;28;20484;-74
2022/01/26 18:40:33;;;;;;;24.70;13.32;;;;;;;;;;10574500;28;20031;-70
2022/01/26 18:50:52;;;;;;;33.10;15.30;;;;;;;;;;10573225;28;20019;-70
2022/01/26 18:55:52;;;;;;;39.75;17.15;;;;;;;;;;10530043;28;20032;-71
2022/01/26 19:00:52;;;;;;;39.58;18.50;;;;;;;;;;10513567;28;20055;-71
2022/01/26 19:05:55;;;;;;;32.58;14.88;;;;;;;;;;10512978;28;20047;-70
2022/01/26 19:10:56;;;;;;;26.25;14.38;;;;;;;;;;10487519;28;20126;-72
2022/01/26 19:16:05;;;;;;;30.45;15.65;;;;;;;;;;10470958;28;20501;-70
2022/01/26 19:21:19;;;;;;;31.20;14.75;;;;;;;;;;10499961;28;20065;-72
2022/01/26 19:26:25;;;;;;;31.88;13.88;;;;;;;;;;10493771;28;20032;-75
2022/01/26 19:52:11;;;;;;;31.20;17.52;;;;;;;;;;10488079;28;20108;-72
2022/01/26 19:57:11;;;;;;;35.42;16.50;;;;;;;;;;10488187;28;20043;-72
2022/01/26 20:02:11;;;;;;;29.92;14.50;;;;;;;;;;10470892;28;20048;-73
2022/01/26 20:07:17;;;;;;;31.73;15.15;;;;;;;;;;10491338;28;20044;-71
2022/01/26 20:12:26;;;;;;;29.77;14.27;;;;;;;;;;10511675;28;20047;-72
2022/01/26 20:17:27;;;;;;;;;;;;;;;;;;10511856;28;20032;-73
2022/01/26 20:22:27;;;;;;;24.33;14.38;;;;;;;;;;10511148;28;19976;-70
2022/01/26 20:27:27;;;;;;;32.38;15.98;;;;;;;;;;10510849;28;20043;-73
2022/01/26 20:32:28;;;;;;;32.87;13.63;;;;;;;;;;10513737;28;20032;-74
2022/01/26 20:37:28;;;;;;;26.60;13.25;;;;;;;;;;10542637;28;20565;-72
2022/01/26 20:42:29;;;;;;;24.10;13.32;;;;;;;;;;10579185;28;20100;-71
2022/01/26 20:47:29;;;;;;;25.57;13.23;;;;;;;;;;10560467;28;20034;-74
2022/01/26 20:52:29;;;;;;;26.92;13.57;;;;;;;;;;10560610;28;20023;-73
2022/01/26 20:57:30;;;;;;;23.48;12.25;;;;;;;;;;10560673;28;20039;-75
2022/01/26 21:02:30;;;;;;;22.40;12.30;;;;;;;;;;10560482;28;20039;-71
2022/01/26 21:07:30;;;;;;;21.60;11.65;;;;;;;;;;10559188;28;20066;-71
2022/01/26 21:12:31;;;;;;;28.23;11.93;;;;;;;;;;10543125;28;20031;-71
2022/01/26 21:17:31;;;;;;;20.75;11.93;;;;;;;;;;10578729;28;20030;-72
2022/01/26 21:22:32;;;;;;;23.10;11.10;;;;;;;;;;10558565;28;20565;-71
2022/01/26 21:27:32;;;;;;;22.92;13.02;;;;;;;;;;10577455;28;20036;-71
2022/01/26 21:32:33;;;;;;;26.58;12.00;;;;;;;;;;10558814;28;20039;-72
2022/01/26 21:37:33;;;;;;;19.67;9.98;;;;;;;;;;10577234;28;20024;-70
2022/01/26 21:42:33;;;;;;;20.13;9.97;;;;;;;;;;10558130;28;20034;-70
2022/01/26 21:47:34;;;;;;;24.60;11.23;;;;;;;;;;10558561;28;20498;-71
2022/01/26 21:52:34;;;;;;;20.92;9.60;;;;;;;;;;10558025;28;20019;-71
2022/01/26 21:57:35;;;;;;;22.37;10.73;;;;;;;;;;10558326;28;20031;-72
2022/01/26 22:02:35;;;;;;;19.40;10.13;;;;;;;;;;10557191;28;20260;-71
2022/01/26 22:07:35;;;;;;;16.95;9.43;;;;;;;;;;10575255;28;20293;-71
2022/01/26 22:12:36;;;;;;;19.75;9.05;;;;;;;;;;10575814;28;20051;-71
2022/01/26 22:17:36;;;;;;;22.87;11.53;;;;;;;;;;10557322;28;20027;-72
2022/01/26 22:22:37;;;;;;;16.67;9.90;;;;;;;;;;10556844;28;20481;-71
2022/01/26 22:27:41;;;;;;;19.85;9.93;;;;;;;;;;10556824;28;20027;-71
2022/01/26 22:32:42;;;;;;;23.55;10.82;;;;;;;;;;10556621;28;20059;-75
2022/01/26 22:37:44;;;;;;;23.97;11.00;;;;;;;;;;10556200;28;20078;-71
2022/01/26 22:42:44;;;;;;;25.98;10.75;;;;;;;;;;10556932;28;20563;-71
2022/01/26 22:47:45;;;;;;;20.20;10.03;;;;;;;;;;10556341;28;20032;-78
2022/01/26 22:52:45;;;;;;;19.88;10.98;;;;;;;;;;10555582;28;20477;-71
2022/01/26 22:57:46;;;;;;;23.80;11.25;;;;;;;;;;10554971;28;20108;-71
2022/01/26 23:02:51;;;;;;;25.27;11.75;;;;;;;;;;10555567;28;20514;-71
2022/01/26 23:07:51;;;;;;;24.48;11.18;;;;;;;;;;10538399;28;20078;-72
2022/01/26 23:12:52;;;;;;;21.20;9.27;;;;;;;;;;10555439;28;20040;-71
2022/01/26 23:17:52;;;;;;;20.27;9.63;;;;;;;;;;10555044;28;20278;-71
2022/01/26 23:22:55;;;;;;;20.07;9.87;;;;;;;;;;10554831;28;20096;-71
2022/01/26 23:28:23;;;;;;;22.17;9.95;;;;;;;;;;10554478;28;20122;-72
2022/01/26 23:33:46;;;;;;;18.30;8.70;;;;;;;;;;10572332;28;20050;-70
